sensor_id;sensor_type;location;lat;lon;timestamp;P1;durP1;ratioP1;P2;durP2;ratioP2
4726;SDS011;2377;51.734;8.950;2023-10-09T00:01:43;12.57;;;5.87;;
4726;SDS011;2377;51.734;8.950;2023-10-09T00:04:11;17.77;;;5.70;;
4726;SDS011;2377;51.734;8.950;2023-10-09T00:06:41;10.93;;;5.40;;
4726;SDS011;2377;51.734;8.950;2023-10-09T00:09:09;11.77;;;5.93;;
4726;SDS011;2377;51.734;8.950;2023-10-09T00:11:55;16.83;;;5.47;;
4726;SDS011;2377;51.734;8.950;2023-10-09T00:14:25;15.50;;;5.63;;
4726;SDS011;2377;51.734;8.950;2023-10-09T00:16:58;8.80;;;5.40;;
4726;SDS011;2377;51.734;8.950;2023-10-09T00:19:42;12.30;;;5.57;;
4726;SDS011;2377;51.734;8.950;2023-10-09T00:22:11;10.87;;;5.50;;
4726;SDS011;2377;51.734;8.950;2023-10-09T00:24:51;13.03;;;5.87;;
4726;SDS011;2377;51.734;8.950;2023-10-09T00:27:36;15.10;;;5.30;;
4726;SDS011;2377;51.734;8.950;2023-10-09T00:30:08;12.20;;;5.80;;
4726;SDS011;2377;51.734;8.950;2023-10-09T00:32:41;13.20;;;5.87;;
4726;SDS011;2377;51.734;8.950;2023-10-09T00:35:16;11.17;;;5.67;;
4726;SDS011;2377;51.734;8.950;2023-10-09T00:38:04;10.57;;;5.03;;
4726;SDS011;2377;51.734;8.950;2023-10-09T00:40:40;18.13;;;7.00;;
4726;SDS011;2377;51.734;8.950;2023-10-09T00:43:12;11.77;;;6.53;;
4726;SDS011;2377;51.734;8.950;2023-10-09T00:45:39;12.20;;;7.40;;
4726;SDS011;2377;51.734;8.950;2023-10-09T00:48:11;20.70;;;7.93;;
4726;SDS011;2377;51.734;8.950;2023-10-09T00:50:47;12.73;;;7.30;;
4726;SDS011;2377;51.734;8.950;2023-10-09T00:53:18;15.30;;;7.60;;
4726;SDS011;2377;51.734;8.950;2023-10-09T00:55:56;15.23;;;8.30;;
4726;SDS011;2377;51.734;8.950;2023-10-09T00:58:36;18.30;;;9.97;;
4726;SDS011;2377;51.734;8.950;2023-10-09T01:01:05;20.70;;;10.50;;
4726;SDS011;2377;51.734;8.950;2023-10-09T01:03:42;23.33;;;11.90;;
4726;SDS011;2377;51.734;8.950;2023-10-09T01:06:10;23.40;;;12.07;;
4726;SDS011;2377;51.734;8.950;2023-10-09T01:08:46;23.60;;;11.73;;
4726;SDS011;2377;51.734;8.950;2023-10-09T01:11:33;21.43;;;11.57;;
4726;SDS011;2377;51.734;8.950;2023-10-09T01:14:12;19.20;;;11.07;;
4726;SDS011;2377;51.734;8.950;2023-10-09T01:16:39;26.03;;;11.90;;
4726;SDS011;2377;51.734;8.950;2023-10-09T01:19:13;28.30;;;13.13;;
4726;SDS011;2377;51.734;8.950;2023-10-09T01:21:49;23.23;;;13.17;;
4726;SDS011;2377;51.734;8.950;2023-10-09T01:24:18;25.37;;;13.50;;
4726;SDS011;2377;51.734;8.950;2023-10-09T01:26:48;24.80;;;13.17;;
4726;SDS011;2377;51.734;8.950;2023-10-09T01:29:19;22.93;;;12.67;;
4726;SDS011;2377;51.734;8.950;2023-10-09T01:31:52;21.13;;;12.80;;
4726;SDS011;2377;51.734;8.950;2023-10-09T01:34:21;23.50;;;12.80;;
4726;SDS011;2377;51.734;8.950;2023-10-09T01:36:51;24.00;;;12.13;;
4726;SDS011;2377;51.734;8.950;2023-10-09T01:39:22;23.77;;;13.37;;
4726;SDS011;2377;51.734;8.950;2023-10-09T01:41:54;32.17;;;14.13;;
4726;SDS011;2377;51.734;8.950;2023-10-09T01:44:26;26.60;;;13.57;;
4726;SDS011;2377;51.734;8.950;2023-10-09T01:46:55;22.33;;;12.90;;
4726;SDS011;2377;51.734;8.950;2023-10-09T01:49:24;34.17;;;15.90;;
4726;SDS011;2377;51.734;8.950;2023-10-09T01:51:57;21.20;;;13.13;;
4726;SDS011;2377;51.734;8.950;2023-10-09T01:54:29;31.73;;;14.47;;
4726;SDS011;2377;51.734;8.950;2023-10-09T01:57:02;30.83;;;16.07;;
4726;SDS011;2377;51.734;8.950;2023-10-09T01:59:34;30.00;;;15.60;;
4726;SDS011;2377;51.734;8.950;2023-10-09T02:02:03;21.03;;;14.30;;
4726;SDS011;2377;51.734;8.950;2023-10-09T02:04:39;25.90;;;14.07;;
4726;SDS011;2377;51.734;8.950;2023-10-09T02:07:06;26.60;;;14.83;;
4726;SDS011;2377;51.734;8.950;2023-10-09T02:09:35;28.47;;;16.30;;
4726;SDS011;2377;51.734;8.950;2023-10-09T02:12:12;33.63;;;16.87;;
4726;SDS011;2377;51.734;8.950;2023-10-09T02:14:39;23.50;;;13.60;;
4726;SDS011;2377;51.734;8.950;2023-10-09T02:17:09;24.37;;;13.83;;
4726;SDS011;2377;51.734;8.950;2023-10-09T02:19:43;31.37;;;15.40;;
4726;SDS011;2377;51.734;8.950;2023-10-09T02:22:14;26.43;;;14.50;;
4726;SDS011;2377;51.734;8.950;2023-10-09T02:24:44;24.10;;;13.83;;
4726;SDS011;2377;51.734;8.950;2023-10-09T02:27:23;26.67;;;14.20;;
4726;SDS011;2377;51.734;8.950;2023-10-09T02:30:11;25.97;;;14.27;;
4726;SDS011;2377;51.734;8.950;2023-10-09T02:32:43;23.27;;;14.20;;
4726;SDS011;2377;51.734;8.950;2023-10-09T02:35:14;26.57;;;13.53;;
4726;SDS011;2377;51.734;8.950;2023-10-09T02:38:01;26.87;;;14.80;;
4726;SDS011;2377;51.734;8.950;2023-10-09T02:40:33;25.57;;;14.60;;
4726;SDS011;2377;51.734;8.950;2023-10-09T02:43:18;21.90;;;13.70;;
4726;SDS011;2377;51.734;8.950;2023-10-09T02:45:46;23.77;;;14.10;;
4726;SDS011;2377;51.734;8.950;2023-10-09T02:48:16;31.00;;;15.63;;
4726;SDS011;2377;51.734;8.950;2023-10-09T02:50:45;25.33;;;15.10;;
4726;SDS011;2377;51.734;8.950;2023-10-09T02:53:15;32.40;;;14.73;;
4726;SDS011;2377;51.734;8.950;2023-10-09T02:55:56;27.83;;;15.33;;
4726;SDS011;2377;51.734;8.950;2023-10-09T02:58:37;29.47;;;16.40;;
4726;SDS011;2377;51.734;8.950;2023-10-09T03:01:09;26.63;;;15.03;;
4726;SDS011;2377;51.734;8.950;2023-10-09T03:03:38;27.67;;;15.27;;
4726;SDS011;2377;51.734;8.950;2023-10-09T03:06:10;24.87;;;15.13;;
4726;SDS011;2377;51.734;8.950;2023-10-09T03:08:38;28.50;;;14.93;;
4726;SDS011;2377;51.734;8.950;2023-10-09T03:11:08;29.23;;;14.47;;
4726;SDS011;2377;51.734;8.950;2023-10-09T03:13:40;27.67;;;15.87;;
4726;SDS011;2377;51.734;8.950;2023-10-09T03:16:10;28.67;;;15.67;;
4726;SDS011;2377;51.734;8.950;2023-10-09T03:18:44;27.40;;;15.13;;
4726;SDS011;2377;51.734;8.950;2023-10-09T03:21:13;30.87;;;16.97;;
4726;SDS011;2377;51.734;8.950;2023-10-09T03:23:42;23.67;;;15.13;;
4726;SDS011;2377;51.734;8.950;2023-10-09T03:26:15;29.90;;;16.60;;
4726;SDS011;2377;51.734;8.950;2023-10-09T03:28:44;30.07;;;15.63;;
4726;SDS011;2377;51.734;8.950;2023-10-09T03:31:11;40.37;;;16.20;;
4726;SDS011;2377;51.734;8.950;2023-10-09T03:33:39;32.73;;;16.63;;
4726;SDS011;2377;51.734;8.950;2023-10-09T03:36:07;30.63;;;16.33;;
4726;SDS011;2377;51.734;8.950;2023-10-09T03:38:35;25.57;;;15.10;;
4726;SDS011;2377;51.734;8.950;2023-10-09T03:41:03;30.13;;;17.33;;
4726;SDS011;2377;51.734;8.950;2023-10-09T03:43:33;28.00;;;15.60;;
4726;SDS011;2377;51.734;8.950;2023-10-09T03:46:03;22.23;;;15.50;;
4726;SDS011;2377;51.734;8.950;2023-10-09T03:48:38;30.97;;;15.63;;
4726;SDS011;2377;51.734;8.950;2023-10-09T03:51:08;29.10;;;15.30;;
4726;SDS011;2377;51.734;8.950;2023-10-09T03:53:37;23.80;;;14.40;;
4726;SDS011;2377;51.734;8.950;2023-10-09T03:56:05;28.73;;;15.13;;
4726;SDS011;2377;51.734;8.950;2023-10-09T03:58:39;25.30;;;15.50;;
4726;SDS011;2377;51.734;8.950;2023-10-09T04:01:10;26.93;;;16.40;;
4726;SDS011;2377;51.734;8.950;2023-10-09T04:03:43;27.07;;;15.40;;
4726;SDS011;2377;51.734;8.950;2023-10-09T04:06:11;28.57;;;16.67;;
4726;SDS011;2377;51.734;8.950;2023-10-09T04:08:38;29.07;;;16.83;;
4726;SDS011;2377;51.734;8.950;2023-10-09T04:11:12;29.23;;;15.70;;
4726;SDS011;2377;51.734;8.950;2023-10-09T04:13:44;32.53;;;16.33;;
4726;SDS011;2377;51.734;8.950;2023-10-09T04:16:12;26.47;;;16.60;;
4726;SDS011;2377;51.734;8.950;2023-10-09T04:18:59;29.87;;;16.87;;
4726;SDS011;2377;51.734;8.950;2023-10-09T04:21:33;26.10;;;16.77;;
4726;SDS011;2377;51.734;8.950;2023-10-09T04:24:00;25.40;;;15.50;;
4726;SDS011;2377;51.734;8.950;2023-10-09T04:26:48;26.90;;;16.97;;
4726;SDS011;2377;51.734;8.950;2023-10-09T04:29:23;30.80;;;16.77;;
4726;SDS011;2377;51.734;8.950;2023-10-09T04:31:53;31.47;;;16.53;;
4726;SDS011;2377;51.734;8.950;2023-10-09T04:34:22;24.77;;;16.10;;
4726;SDS011;2377;51.734;8.950;2023-10-09T04:36:55;33.27;;;18.83;;
4726;SDS011;2377;51.734;8.950;2023-10-09T04:39:25;30.47;;;18.57;;
4726;SDS011;2377;51.734;8.950;2023-10-09T04:42:11;28.10;;;17.13;;
4726;SDS011;2377;51.734;8.950;2023-10-09T04:45:00;35.30;;;17.50;;
4726;SDS011;2377;51.734;8.950;2023-10-09T04:47:48;27.90;;;18.57;;
4726;SDS011;2377;51.734;8.950;2023-10-09T04:50:31;30.93;;;18.80;;
4726;SDS011;2377;51.734;8.950;2023-10-09T04:53:21;28.00;;;17.07;;
4726;SDS011;2377;51.734;8.950;2023-10-09T04:55:48;29.37;;;16.33;;
4726;SDS011;2377;51.734;8.950;2023-10-09T04:58:23;34.80;;;19.37;;
4726;SDS011;2377;51.734;8.950;2023-10-09T05:00:53;31.43;;;17.37;;
4726;SDS011;2377;51.734;8.950;2023-10-09T05:03:37;32.57;;;18.77;;
4726;SDS011;2377;51.734;8.950;2023-10-09T05:06:09;28.80;;;17.00;;
4726;SDS011;2377;51.734;8.950;2023-10-09T05:08:54;26.80;;;17.70;;
4726;SDS011;2377;51.734;8.950;2023-10-09T05:11:33;31.63;;;16.50;;
4726;SDS011;2377;51.734;8.950;2023-10-09T05:14:18;25.53;;;16.10;;
4726;SDS011;2377;51.734;8.950;2023-10-09T05:17:04;29.47;;;15.70;;
4726;SDS011;2377;51.734;8.950;2023-10-09T05:19:40;25.43;;;16.53;;
4726;SDS011;2377;51.734;8.950;2023-10-09T05:22:19;22.27;;;15.00;;
4726;SDS011;2377;51.734;8.950;2023-10-09T05:25:03;25.57;;;14.50;;
4726;SDS011;2377;51.734;8.950;2023-10-09T05:27:44;24.90;;;13.53;;
4726;SDS011;2377;51.734;8.950;2023-10-09T05:30:15;21.30;;;12.13;;
4726;SDS011;2377;51.734;8.950;2023-10-09T05:32:53;25.47;;;13.80;;
4726;SDS011;2377;51.734;8.950;2023-10-09T05:35:24;21.60;;;13.30;;
4726;SDS011;2377;51.734;8.950;2023-10-09T05:38:06;28.60;;;14.27;;
4726;SDS011;2377;51.734;8.950;2023-10-09T05:40:49;21.93;;;13.47;;
4726;SDS011;2377;51.734;8.950;2023-10-09T05:43:40;19.67;;;12.87;;
4726;SDS011;2377;51.734;8.950;2023-10-09T05:46:39;20.70;;;11.83;;
4726;SDS011;2377;51.734;8.950;2023-10-09T05:49:28;20.87;;;12.57;;
4726;SDS011;2377;51.734;8.950;2023-10-09T05:52:11;22.30;;;12.67;;
4726;SDS011;2377;51.734;8.950;2023-10-09T05:54:52;17.70;;;11.53;;
4726;SDS011;2377;51.734;8.950;2023-10-09T05:57:49;19.50;;;11.93;;
4726;SDS011;2377;51.734;8.950;2023-10-09T06:00:34;18.00;;;10.97;;
4726;SDS011;2377;51.734;8.950;2023-10-09T06:03:19;20.80;;;12.73;;
4726;SDS011;2377;51.734;8.950;2023-10-09T06:06:10;20.10;;;12.80;;
4726;SDS011;2377;51.734;8.950;2023-10-09T06:08:57;20.07;;;12.33;;
4726;SDS011;2377;51.734;8.950;2023-10-09T06:11:44;20.07;;;13.03;;
4726;SDS011;2377;51.734;8.950;2023-10-09T06:14:21;20.40;;;13.97;;
4726;SDS011;2377;51.734;8.950;2023-10-09T06:17:11;26.33;;;14.60;;
4726;SDS011;2377;51.734;8.950;2023-10-09T06:19:49;28.03;;;14.33;;
4726;SDS011;2377;51.734;8.950;2023-10-09T06:22:23;25.73;;;13.30;;
4726;SDS011;2377;51.734;8.950;2023-10-09T06:25:09;21.23;;;12.70;;
4726;SDS011;2377;51.734;8.950;2023-10-09T06:27:37;22.50;;;14.80;;
4726;SDS011;2377;51.734;8.950;2023-10-09T06:30:23;23.17;;;13.70;;
4726;SDS011;2377;51.734;8.950;2023-10-09T06:32:51;28.70;;;14.23;;
4726;SDS011;2377;51.734;8.950;2023-10-09T06:35:33;21.97;;;13.00;;
4726;SDS011;2377;51.734;8.950;2023-10-09T06:38:02;24.67;;;14.33;;
4726;SDS011;2377;51.734;8.950;2023-10-09T06:40:48;23.03;;;13.57;;
4726;SDS011;2377;51.734;8.950;2023-10-09T06:43:42;22.80;;;13.23;;
4726;SDS011;2377;51.734;8.950;2023-10-09T06:46:17;22.47;;;12.80;;
4726;SDS011;2377;51.734;8.950;2023-10-09T06:48:58;20.73;;;13.23;;
4726;SDS011;2377;51.734;8.950;2023-10-09T06:51:40;21.37;;;12.23;;
4726;SDS011;2377;51.734;8.950;2023-10-09T06:54:07;25.90;;;13.83;;
4726;SDS011;2377;51.734;8.950;2023-10-09T06:56:43;21.77;;;14.47;;
4726;SDS011;2377;51.734;8.950;2023-10-09T06:59:28;19.37;;;12.40;;
4726;SDS011;2377;51.734;8.950;2023-10-09T07:02:08;19.30;;;12.13;;
4726;SDS011;2377;51.734;8.950;2023-10-09T07:04:50;24.43;;;13.97;;
4726;SDS011;2377;51.734;8.950;2023-10-09T07:07:21;19.70;;;13.07;;
4726;SDS011;2377;51.734;8.950;2023-10-09T07:09:49;23.80;;;13.93;;
4726;SDS011;2377;51.734;8.950;2023-10-09T07:12:35;23.67;;;13.47;;
4726;SDS011;2377;51.734;8.950;2023-10-09T07:15:08;25.07;;;14.80;;
4726;SDS011;2377;51.734;8.950;2023-10-09T07:17:58;22.43;;;13.90;;
4726;SDS011;2377;51.734;8.950;2023-10-09T07:20:44;29.30;;;13.80;;
4726;SDS011;2377;51.734;8.950;2023-10-09T07:23:24;22.27;;;14.30;;
4726;SDS011;2377;51.734;8.950;2023-10-09T07:26:01;28.57;;;14.90;;
4726;SDS011;2377;51.734;8.950;2023-10-09T07:28:43;24.40;;;14.80;;
4726;SDS011;2377;51.734;8.950;2023-10-09T07:31:18;23.80;;;14.37;;
4726;SDS011;2377;51.734;8.950;2023-10-09T07:33:54;25.10;;;13.83;;
4726;SDS011;2377;51.734;8.950;2023-10-09T07:36:24;20.90;;;13.33;;
4726;SDS011;2377;51.734;8.950;2023-10-09T07:39:03;18.63;;;12.70;;
4726;SDS011;2377;51.734;8.950;2023-10-09T07:41:42;21.03;;;13.10;;
4726;SDS011;2377;51.734;8.950;2023-10-09T07:44:26;20.80;;;13.00;;
4726;SDS011;2377;51.734;8.950;2023-10-09T07:47:03;24.30;;;15.60;;
4726;SDS011;2377;51.734;8.950;2023-10-09T07:49:45;25.80;;;13.80;;
4726;SDS011;2377;51.734;8.950;2023-10-09T07:52:20;21.70;;;13.30;;
4726;SDS011;2377;51.734;8.950;2023-10-09T07:54:51;18.93;;;12.10;;
4726;SDS011;2377;51.734;8.950;2023-10-09T07:57:27;25.53;;;12.77;;
4726;SDS011;2377;51.734;8.950;2023-10-09T08:00:03;23.97;;;14.80;;
4726;SDS011;2377;51.734;8.950;2023-10-09T08:02:58;24.97;;;13.63;;
4726;SDS011;2377;51.734;8.950;2023-10-09T08:05:29;21.20;;;13.10;;
4726;SDS011;2377;51.734;8.950;2023-10-09T08:08:00;20.90;;;12.40;;
4726;SDS011;2377;51.734;8.950;2023-10-09T08:11:06;20.53;;;12.67;;
4726;SDS011;2377;51.734;8.950;2023-10-09T08:13:51;19.90;;;13.80;;
4726;SDS011;2377;51.734;8.950;2023-10-09T08:16:26;29.90;;;16.33;;
4726;SDS011;2377;51.734;8.950;2023-10-09T08:19:01;23.87;;;14.87;;
4726;SDS011;2377;51.734;8.950;2023-10-09T08:21:47;23.07;;;14.30;;
4726;SDS011;2377;51.734;8.950;2023-10-09T08:24:42;25.13;;;12.70;;
4726;SDS011;2377;51.734;8.950;2023-10-09T08:27:17;18.77;;;12.87;;
4726;SDS011;2377;51.734;8.950;2023-10-09T08:30:11;26.73;;;14.03;;
4726;SDS011;2377;51.734;8.950;2023-10-09T08:32:53;21.60;;;12.57;;
4726;SDS011;2377;51.734;8.950;2023-10-09T08:35:27;23.57;;;12.90;;
4726;SDS011;2377;51.734;8.950;2023-10-09T08:38:00;19.73;;;12.77;;
4726;SDS011;2377;51.734;8.950;2023-10-09T08:40:33;25.53;;;13.07;;
4726;SDS011;2377;51.734;8.950;2023-10-09T08:43:07;23.83;;;13.73;;
4726;SDS011;2377;51.734;8.950;2023-10-09T08:45:43;21.40;;;14.57;;
4726;SDS011;2377;51.734;8.950;2023-10-09T08:48:13;19.80;;;13.03;;
4726;SDS011;2377;51.734;8.950;2023-10-09T08:50:41;19.30;;;12.90;;
4726;SDS011;2377;51.734;8.950;2023-10-09T08:53:11;21.63;;;12.63;;
4726;SDS011;2377;51.734;8.950;2023-10-09T08:55:41;24.90;;;13.47;;
4726;SDS011;2377;51.734;8.950;2023-10-09T08:58:11;21.70;;;12.27;;
4726;SDS011;2377;51.734;8.950;2023-10-09T09:00:43;20.13;;;12.50;;
4726;SDS011;2377;51.734;8.950;2023-10-09T09:03:12;24.27;;;14.20;;
4726;SDS011;2377;51.734;8.950;2023-10-09T09:05:41;20.00;;;12.87;;
4726;SDS011;2377;51.734;8.950;2023-10-09T09:08:22;23.83;;;14.43;;
4726;SDS011;2377;51.734;8.950;2023-10-09T09:10:51;23.13;;;13.13;;
4726;SDS011;2377;51.734;8.950;2023-10-09T09:13:30;23.90;;;15.07;;
4726;SDS011;2377;51.734;8.950;2023-10-09T09:15:59;21.50;;;12.37;;
4726;SDS011;2377;51.734;8.950;2023-10-09T09:18:27;23.03;;;12.87;;
4726;SDS011;2377;51.734;8.950;2023-10-09T09:21:11;22.27;;;14.10;;
4726;SDS011;2377;51.734;8.950;2023-10-09T09:23:54;22.10;;;13.87;;
4726;SDS011;2377;51.734;8.950;2023-10-09T09:26:37;22.63;;;14.23;;
4726;SDS011;2377;51.734;8.950;2023-10-09T09:29:11;21.63;;;13.53;;
4726;SDS011;2377;51.734;8.950;2023-10-09T09:31:47;19.10;;;13.20;;
4726;SDS011;2377;51.734;8.950;2023-10-09T09:34:19;24.17;;;13.47;;
4726;SDS011;2377;51.734;8.950;2023-10-09T09:36:51;23.43;;;14.60;;
4726;SDS011;2377;51.734;8.950;2023-10-09T09:39:23;21.43;;;13.53;;
4726;SDS011;2377;51.734;8.950;2023-10-09T09:41:56;22.90;;;13.90;;
4726;SDS011;2377;51.734;8.950;2023-10-09T09:44:32;19.10;;;14.00;;
4726;SDS011;2377;51.734;8.950;2023-10-09T09:47:08;24.50;;;14.07;;
4726;SDS011;2377;51.734;8.950;2023-10-09T09:49:39;21.63;;;13.47;;
4726;SDS011;2377;51.734;8.950;2023-10-09T09:52:08;20.07;;;14.13;;
4726;SDS011;2377;51.734;8.950;2023-10-09T09:54:38;23.23;;;14.63;;
4726;SDS011;2377;51.734;8.950;2023-10-09T09:57:06;22.00;;;13.70;;
4726;SDS011;2377;51.734;8.950;2023-10-09T09:59:38;19.77;;;13.27;;
4726;SDS011;2377;51.734;8.950;2023-10-09T10:02:16;21.90;;;12.53;;
4726;SDS011;2377;51.734;8.950;2023-10-09T10:04:55;23.73;;;14.47;;
4726;SDS011;2377;51.734;8.950;2023-10-09T10:07:28;19.77;;;12.93;;
4726;SDS011;2377;51.734;8.950;2023-10-09T10:13:04;20.60;;;12.70;;
4726;SDS011;2377;51.734;8.950;2023-10-09T10:16:04;22.70;;;13.30;;
4726;SDS011;2377;51.734;8.950;2023-10-09T10:18:57;20.57;;;12.87;;
4726;SDS011;2377;51.734;8.950;2023-10-09T10:21:32;25.60;;;13.80;;
4726;SDS011;2377;51.734;8.950;2023-10-09T10:24:05;25.30;;;13.90;;
4726;SDS011;2377;51.734;8.950;2023-10-09T10:27:25;25.90;;;14.37;;
4726;SDS011;2377;51.734;8.950;2023-10-09T10:33:01;22.70;;;13.50;;
4726;SDS011;2377;51.734;8.950;2023-10-09T10:35:41;22.80;;;13.47;;
4726;SDS011;2377;51.734;8.950;2023-10-09T10:38:30;19.83;;;13.17;;
4726;SDS011;2377;51.734;8.950;2023-10-09T10:41:16;26.73;;;13.43;;
4726;SDS011;2377;51.734;8.950;2023-10-09T10:43:48;20.60;;;13.67;;
4726;SDS011;2377;51.734;8.950;2023-10-09T10:46:26;20.20;;;12.00;;
4726;SDS011;2377;51.734;8.950;2023-10-09T10:49:04;20.60;;;12.73;;
4726;SDS011;2377;51.734;8.950;2023-10-09T10:51:46;22.63;;;13.00;;
4726;SDS011;2377;51.734;8.950;2023-10-09T10:54:20;19.50;;;12.23;;
4726;SDS011;2377;51.734;8.950;2023-10-09T10:57:13;21.80;;;12.83;;
4726;SDS011;2377;51.734;8.950;2023-10-09T11:00:09;22.63;;;13.30;;
4726;SDS011;2377;51.734;8.950;2023-10-09T11:03:01;18.13;;;12.00;;
4726;SDS011;2377;51.734;8.950;2023-10-09T11:05:40;20.23;;;12.20;;
4726;SDS011;2377;51.734;8.950;2023-10-09T11:08:15;19.53;;;13.50;;
4726;SDS011;2377;51.734;8.950;2023-10-09T11:10:48;19.00;;;12.13;;
4726;SDS011;2377;51.734;8.950;2023-10-09T11:13:21;19.67;;;12.20;;
4726;SDS011;2377;51.734;8.950;2023-10-09T11:16:01;21.33;;;13.40;;
4726;SDS011;2377;51.734;8.950;2023-10-09T11:18:41;21.57;;;13.73;;
4726;SDS011;2377;51.734;8.950;2023-10-09T11:21:12;22.47;;;14.20;;
4726;SDS011;2377;51.734;8.950;2023-10-09T11:24:00;32.33;;;15.10;;
4726;SDS011;2377;51.734;8.950;2023-10-09T11:26:42;21.30;;;15.33;;
4726;SDS011;2377;51.734;8.950;2023-10-09T11:29:19;24.17;;;15.23;;
4726;SDS011;2377;51.734;8.950;2023-10-09T11:31:58;24.77;;;14.30;;
4726;SDS011;2377;51.734;8.950;2023-10-09T11:34:27;24.10;;;13.80;;
4726;SDS011;2377;51.734;8.950;2023-10-09T11:36:58;27.67;;;15.30;;
4726;SDS011;2377;51.734;8.950;2023-10-09T11:39:27;24.10;;;14.90;;
4726;SDS011;2377;51.734;8.950;2023-10-09T11:42:00;22.80;;;13.37;;
4726;SDS011;2377;51.734;8.950;2023-10-09T11:44:36;19.40;;;13.30;;
4726;SDS011;2377;51.734;8.950;2023-10-09T11:47:11;20.63;;;14.70;;
4726;SDS011;2377;51.734;8.950;2023-10-09T11:49:58;26.77;;;14.47;;
4726;SDS011;2377;51.734;8.950;2023-10-09T11:55:34;26.00;;;15.63;;
4726;SDS011;2377;51.734;8.950;2023-10-09T11:58:04;25.67;;;16.27;;
4726;SDS011;2377;51.734;8.950;2023-10-09T12:00:32;24.50;;;15.57;;
4726;SDS011;2377;51.734;8.950;2023-10-09T12:03:11;25.13;;;17.17;;
4726;SDS011;2377;51.734;8.950;2023-10-09T12:05:40;31.33;;;18.33;;
4726;SDS011;2377;51.734;8.950;2023-10-09T12:08:09;21.40;;;15.67;;
4726;SDS011;2377;51.734;8.950;2023-10-09T12:10:40;25.00;;;17.37;;
4726;SDS011;2377;51.734;8.950;2023-10-09T12:13:08;29.17;;;19.70;;
4726;SDS011;2377;51.734;8.950;2023-10-09T12:15:35;35.73;;;22.10;;
4726;SDS011;2377;51.734;8.950;2023-10-09T12:18:06;32.37;;;22.10;;
4726;SDS011;2377;51.734;8.950;2023-10-09T12:20:41;28.63;;;19.87;;
4726;SDS011;2377;51.734;8.950;2023-10-09T12:23:15;28.60;;;21.83;;
4726;SDS011;2377;51.734;8.950;2023-10-09T12:25:43;30.27;;;21.53;;
4726;SDS011;2377;51.734;8.950;2023-10-09T12:28:11;38.00;;;22.43;;
4726;SDS011;2377;51.734;8.950;2023-10-09T12:30:39;38.70;;;23.30;;
4726;SDS011;2377;51.734;8.950;2023-10-09T12:33:07;33.17;;;22.27;;
4726;SDS011;2377;51.734;8.950;2023-10-09T12:35:38;38.27;;;22.30;;
4726;SDS011;2377;51.734;8.950;2023-10-09T12:38:10;26.90;;;19.47;;
4726;SDS011;2377;51.734;8.950;2023-10-09T12:40:43;39.13;;;27.00;;
4726;SDS011;2377;51.734;8.950;2023-10-09T12:43:15;37.70;;;27.40;;
4726;SDS011;2377;51.734;8.950;2023-10-09T12:45:44;40.00;;;27.70;;
4726;SDS011;2377;51.734;8.950;2023-10-09T12:48:12;36.37;;;27.47;;
4726;SDS011;2377;51.734;8.950;2023-10-09T12:50:41;36.87;;;28.60;;
4726;SDS011;2377;51.734;8.950;2023-10-09T12:53:09;31.20;;;23.23;;
4726;SDS011;2377;51.734;8.950;2023-10-09T12:55:42;38.40;;;26.93;;
4726;SDS011;2377;51.734;8.950;2023-10-09T12:58:10;37.80;;;24.60;;
4726;SDS011;2377;51.734;8.950;2023-10-09T13:00:41;35.60;;;24.43;;
4726;SDS011;2377;51.734;8.950;2023-10-09T13:03:17;34.70;;;26.03;;
4726;SDS011;2377;51.734;8.950;2023-10-09T13:05:49;35.80;;;26.83;;
4726;SDS011;2377;51.734;8.950;2023-10-09T13:08:20;32.63;;;23.93;;
4726;SDS011;2377;51.734;8.950;2023-10-09T13:10:49;34.37;;;22.47;;
4726;SDS011;2377;51.734;8.950;2023-10-09T13:13:26;37.20;;;22.97;;
4726;SDS011;2377;51.734;8.950;2023-10-09T13:16:07;30.43;;;20.50;;
4726;SDS011;2377;51.734;8.950;2023-10-09T13:18:38;33.60;;;23.00;;
4726;SDS011;2377;51.734;8.950;2023-10-09T13:21:08;34.00;;;24.40;;
4726;SDS011;2377;51.734;8.950;2023-10-09T13:23:36;29.70;;;20.60;;
4726;SDS011;2377;51.734;8.950;2023-10-09T13:26:11;30.87;;;20.60;;
4726;SDS011;2377;51.734;8.950;2023-10-09T13:28:49;30.40;;;19.47;;
4726;SDS011;2377;51.734;8.950;2023-10-09T13:31:19;29.57;;;20.60;;
4726;SDS011;2377;51.734;8.950;2023-10-09T13:33:51;30.87;;;18.73;;
4726;SDS011;2377;51.734;8.950;2023-10-09T13:36:22;31.13;;;20.23;;
4726;SDS011;2377;51.734;8.950;2023-10-09T13:38:57;28.57;;;21.83;;
4726;SDS011;2377;51.734;8.950;2023-10-09T13:41:44;34.40;;;22.07;;
4726;SDS011;2377;51.734;8.950;2023-10-09T13:44:12;34.40;;;22.40;;
4726;SDS011;2377;51.734;8.950;2023-10-09T13:46:39;37.17;;;23.30;;
4726;SDS011;2377;51.734;8.950;2023-10-09T13:49:07;33.60;;;21.07;;
4726;SDS011;2377;51.734;8.950;2023-10-09T13:51:39;34.60;;;22.27;;
4726;SDS011;2377;51.734;8.950;2023-10-09T13:54:09;33.67;;;22.00;;
4726;SDS011;2377;51.734;8.950;2023-10-09T13:56:43;36.10;;;21.50;;
4726;SDS011;2377;51.734;8.950;2023-10-09T13:59:10;32.30;;;21.70;;
4726;SDS011;2377;51.734;8.950;2023-10-09T14:01:38;31.00;;;20.60;;
4726;SDS011;2377;51.734;8.950;2023-10-09T14:04:12;42.57;;;23.33;;
4726;SDS011;2377;51.734;8.950;2023-10-09T14:06:44;31.80;;;20.63;;
4726;SDS011;2377;51.734;8.950;2023-10-09T14:09:12;35.10;;;22.80;;
4726;SDS011;2377;51.734;8.950;2023-10-09T14:11:54;40.80;;;22.60;;
4726;SDS011;2377;51.734;8.950;2023-10-09T14:14:31;35.47;;;22.33;;
4726;SDS011;2377;51.734;8.950;2023-10-09T14:17:06;27.90;;;19.77;;
4726;SDS011;2377;51.734;8.950;2023-10-09T14:19:37;36.67;;;22.40;;
4726;SDS011;2377;51.734;8.950;2023-10-09T14:22:07;34.50;;;22.30;;
4726;SDS011;2377;51.734;8.950;2023-10-09T14:24:34;35.97;;;21.67;;
4726;SDS011;2377;51.734;8.950;2023-10-09T14:27:03;26.03;;;18.40;;
4726;SDS011;2377;51.734;8.950;2023-10-09T14:29:31;31.67;;;21.00;;
4726;SDS011;2377;51.734;8.950;2023-10-09T14:32:02;30.60;;;20.63;;
4726;SDS011;2377;51.734;8.950;2023-10-09T14:34:31;35.73;;;20.10;;
4726;SDS011;2377;51.734;8.950;2023-10-09T14:37:01;25.87;;;17.60;;
4726;SDS011;2377;51.734;8.950;2023-10-09T14:39:29;24.97;;;18.33;;
4726;SDS011;2377;51.734;8.950;2023-10-09T14:42:01;35.30;;;20.10;;
4726;SDS011;2377;51.734;8.950;2023-10-09T14:44:34;26.87;;;19.47;;
4726;SDS011;2377;51.734;8.950;2023-10-09T14:47:03;32.73;;;19.40;;
4726;SDS011;2377;51.734;8.950;2023-10-09T14:49:31;24.97;;;16.87;;
4726;SDS011;2377;51.734;8.950;2023-10-09T14:52:02;36.27;;;21.80;;
4726;SDS011;2377;51.734;8.950;2023-10-09T14:54:33;34.37;;;20.23;;
4726;SDS011;2377;51.734;8.950;2023-10-09T14:57:00;29.10;;;19.87;;
4726;SDS011;2377;51.734;8.950;2023-10-09T14:59:31;34.47;;;19.87;;
4726;SDS011;2377;51.734;8.950;2023-10-09T15:01:58;30.47;;;20.60;;
4726;SDS011;2377;51.734;8.950;2023-10-09T15:04:25;33.77;;;20.73;;
4726;SDS011;2377;51.734;8.950;2023-10-09T15:06:52;26.90;;;17.20;;
4726;SDS011;2377;51.734;8.950;2023-10-09T15:09:20;27.30;;;16.37;;
4726;SDS011;2377;51.734;8.950;2023-10-09T15:11:49;26.73;;;16.90;;
4726;SDS011;2377;51.734;8.950;2023-10-09T15:14:17;32.07;;;19.83;;
4726;SDS011;2377;51.734;8.950;2023-10-09T15:16:44;29.83;;;18.73;;
4726;SDS011;2377;51.734;8.950;2023-10-09T15:19:12;27.43;;;15.70;;
4726;SDS011;2377;51.734;8.950;2023-10-09T15:21:41;27.90;;;16.83;;
4726;SDS011;2377;51.734;8.950;2023-10-09T15:24:10;25.40;;;17.17;;
4726;SDS011;2377;51.734;8.950;2023-10-09T15:26:40;36.30;;;19.63;;
4726;SDS011;2377;51.734;8.950;2023-10-09T15:29:10;26.07;;;17.20;;
4726;SDS011;2377;51.734;8.950;2023-10-09T15:31:37;27.00;;;19.00;;
4726;SDS011;2377;51.734;8.950;2023-10-09T15:34:07;37.80;;;21.30;;
4726;SDS011;2377;51.734;8.950;2023-10-09T15:36:35;38.33;;;17.63;;
4726;SDS011;2377;51.734;8.950;2023-10-09T15:39:02;31.57;;;18.37;;
4726;SDS011;2377;51.734;8.950;2023-10-09T15:41:33;33.30;;;18.40;;
4726;SDS011;2377;51.734;8.950;2023-10-09T15:44:00;24.33;;;16.70;;